createdAt,value
2019-04-11T00:01:10.108Z,4.12
2019-04-11T00:03:37.615Z,5.47
2019-04-11T00:06:05.450Z,6.20
2019-04-11T00:08:32.746Z,4.50
2019-04-11T00:10:59.967Z,3.77
2019-04-11T00:13:29.164Z,4.95
2019-04-11T00:15:57.144Z,4.95
2019-04-11T00:18:24.950Z,3.25
2019-04-11T00:20:52.720Z,3.08
2019-04-11T00:23:20.132Z,3.30
2019-04-11T00:25:47.518Z,2.58
2019-04-11T00:28:15.343Z,3.80
2019-04-11T00:30:42.696Z,2.37
2019-04-11T00:33:09.942Z,3.65
2019-04-11T00:35:37.677Z,3.12
2019-04-11T00:38:05.557Z,2.77
2019-04-11T00:40:33.284Z,2.62
2019-04-11T00:43:01.096Z,1.70
2019-04-11T00:45:29.486Z,3.17
2019-04-11T00:47:57.526Z,2.75
2019-04-11T00:50:25.317Z,3.13
2019-04-11T00:52:53.546Z,2.15
2019-04-11T00:55:21.740Z,2.62
2019-04-11T00:57:49.471Z,3.02
2019-04-11T01:00:16.821Z,2.90
2019-04-11T01:02:44.019Z,2.95
2019-04-11T01:05:11.613Z,2.63
2019-04-11T01:07:38.812Z,1.65
2019-04-11T01:10:06.720Z,2.85
2019-04-11T01:12:34.427Z,2.10
2019-04-11T01:15:03.020Z,2.17
2019-04-11T01:17:31.525Z,1.35
2019-04-11T01:19:59.433Z,1.57
2019-04-11T01:22:26.696Z,1.37
2019-04-11T01:24:53.893Z,1.15
2019-04-11T01:27:21.613Z,1.55
2019-04-11T01:29:49.495Z,1.90
2019-04-11T01:32:17.990Z,1.70
2019-04-11T01:34:45.315Z,1.65
2019-04-11T01:37:12.538Z,1.17
2019-04-11T01:39:57.244Z,3.42
2019-04-11T01:42:25.044Z,2.50
2019-04-11T01:44:52.706Z,1.82
2019-04-11T01:47:27.548Z,1.42
2019-04-11T01:49:54.749Z,1.85
2019-04-11T01:52:22.415Z,2.40
2019-04-11T01:54:50.088Z,4.22
2019-04-11T01:57:18.013Z,2.92
2019-04-11T01:59:45.879Z,1.45
2019-04-11T02:02:30.636Z,2.40
2019-04-11T02:05:00.671Z,1.75
2019-04-11T02:07:28.884Z,1.30
2019-04-11T02:09:56.747Z,1.87
2019-04-11T02:12:24.400Z,2.65
2019-04-11T02:14:52.171Z,2.22
2019-04-11T02:17:19.517Z,2.02
2019-04-11T02:19:46.780Z,1.90
2019-04-11T02:22:32.745Z,2.55
2019-04-11T02:25:01.657Z,2.47
2019-04-11T02:27:30.762Z,3.10
2019-04-11T02:29:58.609Z,3.12
2019-04-11T02:32:28.711Z,2.83
2019-04-11T02:34:58.927Z,1.50
2019-04-11T02:37:26.142Z,1.70
2019-04-11T02:39:54.116Z,1.90
2019-04-11T02:42:23.384Z,2.15
2019-04-11T02:45:03.546Z,1.57
2019-04-11T02:47:24.272Z,1.70
2019-04-11T02:49:49.586Z,1.50
2019-04-11T02:52:17.584Z,1.32
2019-04-11T02:54:45.210Z,1.50
2019-04-11T02:57:13.980Z,1.47
2019-04-11T02:59:44.521Z,1.87
2019-04-11T03:02:12.984Z,1.52
2019-04-11T03:04:39.404Z,1.02
2019-04-11T03:07:08.026Z,1.10
2019-04-11T03:09:35.385Z,1.00
2019-04-11T03:12:02.952Z,1.77
2019-04-11T03:14:46.165Z,1.17
2019-04-11T03:17:10.011Z,1.12
2019-04-11T03:19:42.676Z,0.90
2019-04-11T03:21:58.835Z,1.85
2019-04-11T03:24:27.082Z,0.90
2019-04-11T03:26:56.586Z,1.72
2019-04-11T03:29:24.433Z,1.35
2019-04-11T03:35:12.279Z,1.30
2019-04-11T03:37:19.497Z,1.47
2019-04-11T03:39:41.281Z,0.80
2019-04-11T03:42:04.065Z,1.57
2019-04-11T03:44:24.494Z,1.95
2019-04-11T03:47:01.792Z,2.50
2019-04-11T03:49:28.246Z,1.65
2019-04-11T03:51:45.969Z,1.22
2019-04-11T03:54:13.747Z,1.50
2019-04-11T03:56:43.119Z,2.52
2019-04-11T03:59:14.137Z,2.67
2019-04-11T04:01:39.916Z,2.27
2019-04-11T04:04:08.951Z,2.45
2019-04-11T04:06:37.373Z,3.62
2019-04-11T04:09:06.601Z,2.20
2019-04-11T04:11:34.916Z,2.65
2019-04-11T04:14:08.018Z,3.02
2019-04-11T04:16:58.596Z,3.33
2019-04-11T04:19:41.268Z,2.55
2019-04-11T04:22:17.858Z,3.12
2019-04-11T04:24:46.808Z,2.80
2019-04-11T04:27:15.434Z,1.92
2019-04-11T04:29:46.732Z,1.82
2019-04-11T04:32:12.054Z,1.10
2019-04-11T04:34:40.216Z,1.50
2019-04-11T04:37:08.356Z,1.47
2019-04-11T04:39:37.113Z,1.45
2019-04-11T04:42:11.412Z,1.55
2019-04-11T04:44:33.505Z,1.35
2019-04-11T04:47:13.593Z,1.62
2019-04-11T04:49:30.069Z,1.70
2019-04-11T04:51:57.428Z,1.27
2019-04-11T04:54:24.655Z,1.45
2019-04-11T04:56:52.443Z,1.72
2019-04-11T04:59:21.519Z,1.27
2019-04-11T05:01:50.731Z,1.47
2019-04-11T05:04:19.016Z,1.87
2019-04-11T05:06:48.330Z,1.82
2019-04-11T05:09:15.421Z,1.60
2019-04-11T05:11:42.616Z,1.55
2019-04-11T05:14:10.497Z,2.45
2019-04-11T05:16:37.728Z,3.47
2019-04-11T05:19:05.018Z,1.57
2019-04-11T05:21:33.108Z,2.92
2019-04-11T05:24:00.424Z,5.08
2019-04-11T05:26:27.842Z,3.65
2019-04-11T05:28:55.300Z,1.98
2019-04-11T05:31:22.708Z,3.00
2019-04-11T05:33:49.984Z,2.30
2019-04-11T05:36:17.183Z,1.50
2019-04-11T05:38:44.478Z,2.67
2019-04-11T05:41:13.496Z,3.10
2019-04-11T05:43:41.689Z,4.72
2019-04-11T05:46:25.110Z,3.33
2019-04-11T05:48:52.756Z,2.12
2019-04-11T05:51:23.452Z,4.20
2019-04-11T05:53:51.639Z,3.55
2019-04-11T05:56:21.720Z,3.58
2019-04-11T05:58:49.784Z,4.78
2019-04-11T06:01:18.625Z,3.90
2019-04-11T06:03:48.793Z,6.10
2019-04-11T06:06:34.312Z,4.87
2019-04-11T06:09:02.246Z,5.28
2019-04-11T06:11:48.217Z,4.22
2019-04-11T06:14:25.006Z,3.42
2019-04-11T06:16:55.908Z,2.10
2019-04-11T06:19:30.626Z,2.08
2019-04-11T06:22:00.284Z,2.25
2019-04-11T06:24:45.588Z,3.72
2019-04-11T06:27:15.393Z,1.87
2019-04-11T06:29:45.185Z,3.00
2019-04-11T06:32:14.077Z,2.25
2019-04-11T06:34:49.204Z,5.33
2019-04-11T06:37:34.545Z,4.33
2019-04-11T06:40:04.179Z,5.50
2019-04-11T06:42:41.880Z,5.50
2019-04-11T06:45:13.724Z,5.62
2019-04-11T06:47:59.004Z,3.77
2019-04-11T06:50:31.281Z,4.40
2019-04-11T06:52:58.760Z,5.10
2019-04-11T06:55:28.850Z,3.55
2019-04-11T06:57:58.493Z,5.05
2019-04-11T07:00:25.888Z,5.80
2019-04-11T07:03:01.294Z,4.12
2019-04-11T07:05:30.906Z,4.50
2019-04-11T07:07:59.956Z,4.28
2019-04-11T07:10:34.561Z,4.83
2019-04-11T07:13:03.548Z,6.80
2019-04-11T07:15:35.566Z,4.95
2019-04-11T07:18:20.865Z,7.17
2019-04-11T07:20:58.807Z,5.78
2019-04-11T07:23:30.804Z,7.37
2019-04-11T07:26:08.560Z,9.10
2019-04-11T07:28:41.648Z,6.92
2019-04-11T07:31:27.650Z,4.80
2019-04-11T07:34:00.516Z,6.10
2019-04-11T07:39:16.282Z,5.75
2019-04-11T07:41:45.838Z,9.33
2019-04-11T07:44:15.430Z,8.28
2019-04-11T07:47:12.807Z,6.30
2019-04-11T07:49:35.079Z,9.63
2019-04-11T07:52:04.630Z,7.10
2019-04-11T07:54:33.320Z,7.55
2019-04-11T07:57:22.636Z,6.08
2019-04-11T08:00:00.524Z,5.95
2019-04-11T08:02:45.782Z,7.67
2019-04-11T08:05:30.748Z,4.25
2019-04-11T08:07:59.688Z,5.17
2019-04-11T08:10:45.732Z,6.58
2019-04-11T08:13:14.732Z,4.92
2019-04-11T08:16:00.068Z,5.17
2019-04-11T08:18:47.017Z,6.75
2019-04-11T08:21:33.215Z,5.67
2019-04-11T08:24:07.826Z,6.50
2019-04-11T08:26:42.964Z,9.38
2019-04-11T08:29:13.672Z,6.62
2019-04-11T08:31:57.718Z,7.78
2019-04-11T08:34:27.052Z,10.55
2019-04-11T08:37:01.737Z,7.05
2019-04-11T08:39:29.280Z,5.80
2019-04-11T08:41:59.007Z,11.33
2019-04-11T08:44:26.561Z,8.88
2019-04-11T08:46:55.972Z,8.75
2019-04-11T08:49:25.762Z,6.75
2019-04-11T08:51:53.838Z,8.53
2019-04-11T08:54:25.837Z,6.78
2019-04-11T08:56:53.623Z,4.97
2019-04-11T08:59:37.821Z,8.78
2019-04-11T09:02:05.081Z,7.20
2019-04-11T09:04:36.948Z,5.65
2019-04-11T09:07:05.216Z,4.03
2019-04-11T09:09:52.028Z,8.38
2019-04-11T09:12:20.482Z,8.25
2019-04-11T09:14:50.481Z,5.70
2019-04-11T09:17:21.026Z,5.92
2019-04-11T09:19:57.036Z,7.95
2019-04-11T09:22:41.487Z,8.05
2019-04-11T09:25:10.965Z,7.92
2019-04-11T09:27:49.003Z,7.15
2019-04-11T09:30:24.996Z,7.62
2019-04-11T09:36:13.426Z,5.67
2019-04-11T09:38:44.973Z,6.70
2019-04-11T09:41:25.839Z,7.80
2019-04-11T09:43:58.073Z,6.95
2019-04-11T09:46:28.445Z,5.08
2019-04-11T09:49:08.603Z,5.58
2019-04-11T09:51:49.891Z,5.83
2019-04-11T09:54:24.572Z,5.50
2019-04-11T09:57:00.135Z,7.33
2019-04-11T09:59:34.189Z,5.90
2019-04-11T10:02:20.912Z,6.80
2019-04-11T10:04:50.492Z,6.47
2019-04-11T10:07:35.547Z,11.25
2019-04-11T10:10:13.017Z,6.58
2019-04-11T10:13:04.642Z,4.92
2019-04-11T10:15:43.225Z,8.85
2019-04-11T10:18:27.183Z,7.45
2019-04-11T10:20:53.003Z,8.25
2019-04-11T10:23:32.694Z,7.92
2019-04-11T10:26:01.362Z,7.37
2019-04-11T10:28:30.344Z,6.55
2019-04-11T10:31:08.500Z,6.50
2019-04-11T10:33:37.637Z,6.83
2019-04-11T10:36:12.628Z,5.37
2019-04-11T10:38:50.915Z,6.20
2019-04-11T10:41:25.690Z,7.42
2019-04-11T10:43:57.119Z,6.10
2019-04-11T10:46:39.662Z,6.55
2019-04-11T10:49:28.418Z,4.53
2019-04-11T10:51:58.208Z,8.78
2019-04-11T10:54:29.739Z,6.40
2019-04-11T10:57:10.285Z,6.57
2019-04-11T10:59:44.916Z,7.00
2019-04-11T11:02:19.312Z,6.60
2019-04-11T11:04:48.494Z,8.05
2019-04-11T11:07:25.000Z,7.15
2019-04-11T11:09:50.449Z,8.68
2019-04-11T11:12:23.176Z,7.42
2019-04-11T11:15:00.862Z,6.70
2019-04-11T11:18:20.533Z,6.83
2019-04-11T11:20:38.903Z,4.85
2019-04-11T11:23:13.035Z,4.83
2019-04-11T11:25:49.783Z,7.00
2019-04-11T11:28:21.952Z,5.08
2019-04-11T11:33:26.543Z,6.12
2019-04-11T11:36:12.988Z,8.53
2019-04-11T11:38:44.256Z,6.83
2019-04-11T11:41:22.583Z,6.95
2019-04-11T11:43:55.089Z,7.47
2019-04-11T11:46:39.004Z,6.42
2019-04-11T11:49:07.902Z,5.37
2019-04-11T11:51:42.037Z,6.45
2019-04-11T11:54:13.582Z,6.80
2019-04-11T11:56:42.454Z,4.95
2019-04-11T11:59:18.323Z,7.80
2019-04-11T12:01:52.428Z,5.60
2019-04-11T12:04:40.519Z,4.97
2019-04-11T12:07:12.645Z,6.95
2019-04-11T12:10:00.903Z,5.57
2019-04-11T12:12:46.441Z,5.75
2019-04-11T12:15:22.065Z,5.55
2019-04-11T12:18:07.433Z,8.10
2019-04-11T12:20:36.694Z,5.00
2019-04-11T12:23:06.563Z,4.50
2019-04-11T12:25:41.261Z,4.35
2019-04-11T12:28:14.964Z,8.10
2019-04-11T12:30:44.117Z,8.68
2019-04-11T12:33:17.227Z,5.60
2019-04-11T12:38:25.152Z,7.15
2019-04-11T12:41:10.384Z,7.37
2019-04-11T12:43:39.273Z,4.53
2019-04-11T12:46:29.776Z,6.37
2019-04-11T12:48:55.021Z,5.00
2019-04-11T12:51:40.208Z,4.50
2019-04-11T12:54:07.687Z,7.05
2019-04-11T12:56:54.069Z,6.62
2019-04-11T12:59:21.533Z,5.70
2019-04-11T13:02:06.193Z,6.22
2019-04-11T13:04:33.428Z,5.62
2019-04-11T13:07:08.304Z,6.67
2019-04-11T13:09:37.473Z,5.12
2019-04-11T13:12:21.453Z,8.03
2019-04-11T13:14:56.394Z,6.12
2019-04-11T13:17:27.936Z,7.17
2019-04-11T13:20:04.852Z,7.80
2019-04-11T13:22:35.365Z,7.83
2019-04-11T13:25:22.344Z,4.97
2019-04-11T13:27:51.236Z,4.87
2019-04-11T13:30:20.072Z,4.53
2019-04-11T13:32:48.945Z,5.60
2019-04-11T13:35:17.852Z,6.33
2019-04-11T13:38:03.097Z,5.65
2019-04-11T13:40:37.829Z,5.62
2019-04-11T13:43:09.249Z,5.25
2019-04-11T13:45:56.344Z,6.05
2019-04-11T13:48:42.026Z,4.75
2019-04-11T13:51:14.472Z,4.60
2019-04-11T13:53:43.367Z,5.05
2019-04-11T13:56:12.479Z,5.35
2019-04-11T13:58:57.184Z,4.85
2019-04-11T14:01:26.635Z,6.78
2019-04-11T14:04:07.857Z,7.10
2019-04-11T14:06:33.333Z,6.50
2019-04-11T14:09:18.657Z,6.85
2019-04-11T14:11:46.720Z,6.55
2019-04-11T14:14:15.548Z,6.30
2019-04-11T14:16:44.410Z,5.58
2019-04-11T14:19:16.157Z,6.92
2019-04-11T14:21:45.016Z,5.87
2019-04-11T14:24:25.844Z,6.12
2019-04-11T14:26:55.045Z,7.37
2019-04-11T14:29:23.876Z,7.03
2019-04-11T14:31:53.841Z,5.85
2019-04-11T14:34:23.446Z,5.03
2019-04-11T14:37:08.352Z,6.53
2019-04-11T14:39:37.185Z,5.70
2019-04-11T14:42:06.159Z,6.65
2019-04-11T14:44:35.039Z,5.55
2019-04-11T14:47:07.386Z,7.20
2019-04-11T14:49:35.071Z,6.33
2019-04-11T14:52:06.696Z,5.47
2019-04-11T14:54:35.549Z,4.33
2019-04-11T14:57:04.380Z,5.00
2019-04-11T14:59:39.192Z,5.10
2019-04-11T15:02:25.894Z,5.97
2019-04-11T15:04:55.008Z,4.83
2019-04-11T15:07:22.465Z,5.65
2019-04-11T15:10:08.421Z,5.97
2019-04-11T15:12:39.704Z,4.65
2019-04-11T15:15:08.565Z,4.10
2019-04-11T15:17:37.407Z,6.03
2019-04-11T15:20:19.682Z,6.12
2019-04-11T15:22:48.835Z,7.12
2019-04-11T15:25:17.699Z,5.77
2019-04-11T15:27:55.622Z,6.45
2019-04-11T15:30:30.412Z,6.07
2019-04-11T15:33:15.404Z,5.67
2019-04-11T15:35:44.269Z,7.55
2019-04-11T15:38:15.840Z,6.80
2019-04-11T15:40:44.008Z,7.17
2019-04-11T15:43:29.001Z,5.58
2019-04-11T15:45:57.862Z,4.78
2019-04-11T15:48:42.031Z,6.65
2019-04-11T15:51:13.696Z,4.37
2019-04-11T15:53:48.261Z,4.92
2019-04-11T15:56:33.489Z,4.37
2019-04-11T15:59:08.416Z,4.15
2019-04-11T16:01:55.471Z,4.35
2019-04-11T16:04:30.153Z,5.35
2019-04-11T16:07:14.549Z,7.58
2019-04-11T16:09:43.516Z,7.15
2019-04-11T16:12:28.641Z,4.55
2019-04-11T16:15:13.463Z,5.05
2019-04-11T16:17:58.521Z,4.65
2019-04-11T16:20:25.868Z,5.65
2019-04-11T16:23:13.033Z,5.70
2019-04-11T16:25:40.304Z,4.20
2019-04-11T16:28:12.130Z,5.47
2019-04-11T16:30:46.721Z,4.97
2019-04-11T16:33:18.285Z,5.20
2019-04-11T16:35:59.164Z,3.50
2019-04-11T16:38:28.001Z,4.20
2019-04-11T16:41:13.141Z,6.37
2019-04-11T16:43:41.977Z,4.90
2019-04-11T16:46:27.117Z,4.28
2019-04-11T16:48:55.802Z,2.40
2019-04-11T16:51:30.863Z,4.33
2019-04-11T16:53:52.517Z,3.95
2019-04-11T16:56:19.713Z,3.42
2019-04-11T16:58:50.180Z,4.08
2019-04-11T17:01:16.900Z,3.70
2019-04-11T17:03:44.164Z,4.10
2019-04-11T17:06:13.000Z,5.08
2019-04-11T17:08:44.569Z,4.53
2019-04-11T17:11:18.766Z,4.25
2019-04-11T17:13:45.310Z,4.22
2019-04-11T17:16:13.468Z,3.87
2019-04-11T17:18:40.664Z,2.83
2019-04-11T17:21:08.730Z,3.62
2019-04-11T17:23:36.033Z,3.98
2019-04-11T17:26:03.658Z,4.28
2019-04-11T17:28:30.956Z,3.92
2019-04-11T17:30:58.152Z,6.67
2019-04-11T17:33:28.534Z,5.03
2019-04-11T17:35:54.532Z,3.80
2019-04-11T17:38:21.988Z,3.40
2019-04-11T17:40:49.285Z,3.47
2019-04-11T17:43:16.584Z,5.15
2019-04-11T17:45:44.132Z,5.00
2019-04-11T17:48:11.429Z,3.87
2019-04-11T17:50:38.983Z,3.55
2019-04-11T17:53:06.308Z,5.05
2019-04-11T17:55:33.572Z,4.42
2019-04-11T17:58:01.089Z,4.70
2019-04-11T18:00:32.959Z,4.17
2019-04-11T18:03:00.177Z,5.28
2019-04-11T18:05:27.395Z,4.65
2019-04-11T18:07:54.678Z,4.10
2019-04-11T18:10:25.635Z,5.00
2019-04-11T18:12:50.826Z,2.95
2019-04-11T18:15:18.096Z,3.23
2019-04-11T18:17:45.331Z,5.25
2019-04-11T18:20:12.596Z,3.27
2019-04-11T18:22:39.827Z,2.42
2019-04-11T18:25:07.096Z,3.33
2019-04-11T18:27:34.549Z,1.95
2019-04-11T18:30:01.773Z,3.08
2019-04-11T18:32:28.977Z,2.25
2019-04-11T18:34:56.901Z,2.40
2019-04-11T18:37:24.096Z,1.90
2019-04-11T18:39:51.549Z,3.33
2019-04-11T18:42:18.777Z,2.20
2019-04-11T18:44:47.792Z,2.72
2019-04-11T18:47:34.705Z,1.30
2019-04-11T18:50:03.808Z,2.40
2019-04-11T18:52:31.294Z,2.42
2019-04-11T18:54:58.497Z,3.17
2019-04-11T18:57:25.793Z,2.00
2019-04-11T18:59:53.013Z,1.80
2019-04-11T19:02:20.246Z,1.42
2019-04-11T19:04:47.517Z,2.50
2019-04-11T19:07:15.085Z,1.70
2019-04-11T19:09:43.973Z,2.47
2019-04-11T19:12:15.630Z,3.47
2019-04-11T19:14:41.055Z,2.45
2019-04-11T19:17:08.593Z,3.10
2019-04-11T19:19:35.995Z,2.50
2019-04-11T19:22:03.340Z,2.20
2019-04-11T19:24:35.694Z,2.27
2019-04-11T19:26:59.565Z,2.30
2019-04-11T19:29:26.785Z,1.70
2019-04-11T19:31:54.315Z,1.95
2019-04-11T19:34:21.697Z,2.27
2019-04-11T19:36:50.168Z,1.22
2019-04-11T19:39:17.759Z,1.62
2019-04-11T19:41:48.656Z,1.17
2019-04-11T19:44:18.928Z,1.00
2019-04-11T19:46:44.852Z,2.17
2019-04-11T19:49:12.172Z,4.10
2019-04-11T19:51:39.542Z,2.90
2019-04-11T19:54:07.727Z,5.95
2019-04-11T19:56:45.483Z,6.00
2019-04-11T19:59:12.751Z,2.77
2019-04-11T20:01:39.947Z,3.77
2019-04-11T20:04:08.963Z,6.17
2019-04-11T20:06:39.169Z,3.67
2019-04-11T20:09:06.515Z,2.42
2019-04-11T20:11:35.137Z,3.45
2019-04-11T20:14:03.210Z,2.45
2019-04-11T20:16:41.071Z,2.75
2019-04-11T20:19:00.796Z,2.67
2019-04-11T20:21:28.260Z,2.55
2019-04-11T20:23:55.757Z,4.40
2019-04-11T20:26:22.980Z,3.47
2019-04-11T20:28:50.910Z,5.75
2019-04-11T20:31:18.862Z,3.55
2019-04-11T20:33:46.553Z,4.42
2019-04-11T20:36:16.808Z,6.65
2019-04-11T20:38:44.706Z,3.72
2019-04-11T20:41:12.705Z,2.47
2019-04-11T20:43:39.900Z,3.47
2019-04-11T20:46:07.127Z,4.22
2019-04-11T20:48:35.268Z,3.10
2019-04-11T20:51:02.629Z,2.85
2019-04-11T20:53:29.824Z,4.00
2019-04-11T20:55:57.050Z,3.52
2019-04-11T20:58:27.639Z,2.12
2019-04-11T21:00:55.709Z,2.22
2019-04-11T21:03:22.115Z,1.72
2019-04-11T21:05:49.409Z,2.87
2019-04-11T21:08:16.610Z,1.90
2019-04-11T21:10:44.164Z,1.80
2019-04-11T21:13:11.359Z,2.08
2019-04-11T21:15:38.661Z,2.75
2019-04-11T21:18:05.860Z,2.77
2019-04-11T21:20:33.158Z,2.25
2019-04-11T21:23:00.611Z,3.22
2019-04-11T21:25:28.454Z,3.52
2019-04-11T21:27:56.743Z,2.33
2019-04-11T21:30:25.220Z,3.07
2019-04-11T21:32:52.416Z,2.10
2019-04-11T21:35:19.637Z,2.20
2019-04-11T21:37:46.836Z,2.12
2019-04-11T21:40:14.136Z,2.05
2019-04-11T21:42:41.334Z,2.12
2019-04-11T21:45:08.533Z,1.57
2019-04-11T21:47:37.345Z,2.00
2019-04-11T21:50:09.094Z,2.52
2019-04-11T21:52:34.693Z,1.45
2019-04-11T21:55:02.104Z,3.05
2019-04-11T21:57:29.331Z,1.70
2019-04-11T21:59:56.528Z,1.22
2019-04-11T22:02:24.836Z,1.00
2019-04-11T22:04:52.103Z,2.83
2019-04-11T22:07:19.332Z,2.37
2019-04-11T22:09:46.597Z,1.40
2019-04-11T22:12:13.823Z,2.55
2019-04-11T22:14:41.939Z,1.32
2019-04-11T22:17:09.862Z,1.65
2019-04-11T22:19:37.060Z,1.62
2019-04-11T22:22:04.586Z,1.92
2019-04-11T22:24:31.893Z,1.57
2019-04-11T22:26:59.088Z,2.25
2019-04-11T22:29:26.282Z,1.37
2019-04-11T22:31:55.837Z,1.50
2019-04-11T22:34:36.252Z,1.62
2019-04-11T22:37:03.573Z,1.42
2019-04-11T22:39:31.486Z,1.00
2019-04-11T22:41:59.592Z,0.70
2019-04-11T22:44:26.905Z,1.05
2019-04-11T22:46:54.169Z,0.72
2019-04-11T22:49:21.365Z,1.47
2019-04-11T22:51:48.942Z,1.15
2019-04-11T22:54:16.200Z,0.55
2019-04-11T22:56:43.483Z,0.57
2019-04-11T22:59:13.583Z,1.50
2019-04-11T23:01:39.780Z,0.68
2019-04-11T23:04:06.976Z,0.70
2019-04-11T23:06:34.536Z,0.40
2019-04-11T23:09:01.733Z,1.57
2019-04-11T23:11:28.929Z,0.55
2019-04-11T23:13:56.490Z,0.80
2019-04-11T23:16:24.028Z,2.35
2019-04-11T23:18:51.512Z,1.22
2019-04-11T23:21:18.920Z,1.22
2019-04-11T23:23:46.124Z,1.25
2019-04-11T23:26:13.395Z,0.70
2019-04-11T23:28:41.241Z,1.17
2019-04-11T23:31:08.508Z,0.88
2019-04-11T23:33:35.708Z,0.78
2019-04-11T23:36:03.308Z,0.85
2019-04-11T23:38:30.584Z,1.42
2019-04-11T23:40:57.956Z,1.20
2019-04-11T23:43:25.273Z,0.65
2019-04-11T23:45:52.476Z,2.05
2019-04-11T23:48:23.801Z,2.87
2019-04-11T23:50:48.732Z,2.25
2019-04-11T23:53:15.932Z,1.25
2019-04-11T23:55:43.385Z,1.70
2019-04-11T23:58:10.686Z,0.80
